ADDS METAR Data INFO
IDs: Format: Raw Decoded Include TAF

Data at: 0149 UTC 17 Oct 2017

KSAR 170135Z AUTO 00000KT 10SM CLR 09/06 A3032 RMK AO2 T00860055
KSAR 170115Z AUTO 00000KT 10SM CLR 09/06 A3032 RMK AO2 T00920058
KSAR 170055Z AUTO 00000KT 10SM CLR 10/06 A3032 RMK AO2 T00980061
KSAR 170035Z AUTO 00000KT 10SM CLR 12/05 A3032 RMK AO2 T01170046
KSAR 170015Z AUTO 00000KT 10SM CLR 11/05 A3031 RMK AO2 T01110047
KSAR 162355Z AUTO 00000KT 10SM CLR 12/05 A3031 RMK AO2 T01230052 10179 20123
KSAR 162335Z AUTO 00000KT 10SM CLR 14/05 A3031 RMK AO2 T01350045
KSAR 162315Z AUTO 00000KT 10SM CLR 17/01 A3031 RMK AO2 T01650011
KSAR 162255Z AUTO 00000KT 10SM CLR 17/02 A3031 RMK AO2 T01680021
KSAR 162235Z AUTO 00000KT 10SM CLR 17/01 A3031 RMK AO2 T01710012
KSAR 162215Z AUTO 27003KT 10SM CLR 18/01 A3031 RMK AO2 T01750014
KSAR 162155Z AUTO 00000KT 10SM CLR 18/01 A3032 RMK AO2 T01760012
KSAR 162135Z AUTO 00000KT 10SM CLR 18/02 A3032 RMK AO2 T01760016
KSAR 162115Z AUTO 00000KT 10SM CLR 18/01 A3032 RMK AO2 T01780012
KSAR 162055Z AUTO 00000KT 10SM CLR 18/02 A3033 RMK AO2 T01750021
KSAR 162035Z AUTO 08006KT 10SM CLR 18/02 A3034 RMK AO2 T01790021
KSAR 162015Z AUTO 04003KT 10SM CLR 17/02 A3034 RMK AO2 T01710019
KSAR 161955Z AUTO 00000KT 10SM CLR 17/02 A3034 RMK AO2 T01700018
KSAR 161935Z AUTO 28005KT 10SM CLR 18/03 A3035 RMK AO2 T01760026
KSAR 161915Z AUTO 31004KT 10SM CLR 17/02 A3036 RMK AO2 T01710016
KSAR 161855Z AUTO 00000KT 10SM CLR 17/02 A3037 RMK AO2 T01700018
KSAR 161835Z AUTO 28004KT 10SM CLR 17/02 A3038 RMK AO2 T01660023
KSAR 161815Z AUTO 00000KT 10SM CLR 16/04 A3039 RMK AO2 T01610035
KSAR 161755Z AUTO 00000KT 10SM CLR 16/04 A3040 RMK AO2 T01580036 10158 20047
KSAR 161735Z AUTO 05004KT 10SM CLR 15/04 A3041 RMK AO2 T01530035
KSAR 161715Z AUTO 00000KT 10SM CLR 15/04 A3041 RMK AO2 T01470042
KSAR 161655Z AUTO 34004KT 10SM CLR 15/04 A3042 RMK AO2 T01470043
KSAR 161635Z AUTO 02003KT 10SM CLR 14/05 A3042 RMK AO2 T01410046
KSAR 161615Z AUTO 30003KT 10SM CLR 14/05 A3042 RMK AO2 T01350046
KSAR 161555Z AUTO 33004KT 10SM CLR 14/05 A3043 RMK AO2 T01350052
KSAR 161535Z AUTO 33006KT 10SM CLR 13/05 A3043 RMK AO2 T01270054
KSAR 161515Z AUTO 31005KT 10SM CLR 12/06 A3043 RMK AO2 T01200063
KSAR 161455Z AUTO 00000KT 10SM CLR 11/07 A3043 RMK AO2 T01100065
KSAR 161435Z AUTO 30004KT 10SM CLR 10/07 A3042 RMK AO2 T00990068
KSAR 161415Z AUTO 29004KT 10SM CLR 09/07 A3042 RMK AO2 T00860069
KSAR 161355Z AUTO 29004KT 10SM CLR 08/07 A3041 RMK AO2 T00790066
KSAR 161335Z AUTO 29004KT 7SM CLR 07/06 A3040 RMK AO2 T00730063
KSAR 161315Z AUTO 00000KT 10SM CLR 07/06 A3040 RMK AO2 T00650060
KSAR 161255Z AUTO 00000KT 10SM CLR 06/05 A3039 RMK AO2 T00550053
KSAR 161235Z AUTO 00000KT 10SM CLR 05/05 A3039 RMK AO2 T00480047
KSAR 161215Z AUTO 00000KT 10SM CLR 05/05 A3039 RMK AO2 T00500048
KSAR 161155Z AUTO 00000KT 10SM CLR 05/05 A3039 RMK AO2 70009 T00480047 10077 20048
KSAR 161135Z AUTO 00000KT 10SM CLR 05/05 A3038 RMK AO2 T00500048
KSAR 161115Z AUTO 00000KT 10SM CLR 05/05 A3037 RMK AO2 T00500048
KSAR 161055Z AUTO 00000KT 10SM CLR 05/05 A3037 RMK AO2 T00510050
KSAR 161035Z AUTO 00000KT 10SM CLR 05/05 A3037 RMK AO2 T00530051
KSAR 161015Z AUTO 00000KT 10SM CLR 05/05 A3037 RMK AO2 T00530051
KSAR 160955Z AUTO 00000KT 10SM CLR 06/05 A3036 RMK AO2 T00550051
KSAR 160935Z AUTO 00000KT 10SM CLR 06/05 A3036 RMK AO2 T00560052
KSAR 160915Z AUTO 00000KT 10SM CLR 06/05 A3036 RMK AO2 T00580053
KSAR 160855Z AUTO 00000KT 10SM CLR 06/05 A3035 RMK AO2 T00580054
KSAR 160835Z AUTO 00000KT 10SM CLR 06/06 A3035 RMK AO2 T00600055
KSAR 160815Z AUTO 00000KT 10SM CLR 06/06 A3036 RMK AO2 T00610056
KSAR 160755Z AUTO 00000KT 10SM CLR 07/06 A3036 RMK AO2 T00650056
KSAR 160735Z AUTO 00000KT 10SM CLR 07/06 A3035 RMK AO2 T00690055
KSAR 160715Z AUTO 00000KT 10SM CLR 07/05 A3035 RMK AO2 T00680054
KSAR 160655Z AUTO 00000KT 10SM CLR 07/06 A3035 RMK AO2 T00700055
KSAR 160635Z AUTO 00000KT 10SM CLR 07/06 A3035 RMK AO2 T00710056
KSAR 160615Z AUTO 00000KT 10SM CLR 08/05 A3034 RMK AO2 T00750054
KSAR 160555Z AUTO 00000KT 10SM CLR 08/06 A3034 RMK AO2 T00770056 10135 20077
KSAR 160535Z AUTO 00000KT 10SM CLR 08/05 A3034 RMK AO2 T00800054
KSAR 160515Z AUTO 00000KT 10SM CLR 08/06 A3035 RMK AO2 T00840055
KSAR 160455Z AUTO 00000KT 10SM CLR 08/05 A3034 RMK AO2 T00830052
KSAR 160435Z AUTO 00000KT 10SM CLR 09/05 A3034 RMK AO2 T00870052
KSAR 160415Z AUTO 01003KT 10SM CLR 10/05 A3034 RMK AO2 T00950053
KSAR 160355Z AUTO 36005KT 10SM CLR 10/05 A3034 RMK AO2 T00970053 402450097
KSAR 160340Z AUTO 36005KT 10SM CLR 10/06 A3034 RMK AO2 T00970055
KSAR 160315Z AUTO 36005KT 10SM CLR 10/06 A3033 RMK AO2 T01020055
KSAR 160255Z AUTO 36008KT 10SM CLR 11/06 A3033 RMK AO2 T01050057
KSAR 160235Z AUTO 35006KT 10SM CLR 11/06 A3032 RMK AO2 T01060060
KSAR 160215Z AUTO 36005KT 10SM CLR 11/06 A3031 RMK AO2 T01110060
KSAR 160155Z AUTO 35006KT 10SM CLR 11/06 A3030 RMK AO2 T01140061
KSAR 160135Z AUTO 36005KT 10SM CLR 12/06 A3029 RMK AO2 T01200061
KSAR 160115Z AUTO 36006KT 10SM CLR 12/06 A3029 RMK AO2 T01230062
KSAR 160055Z AUTO 34006KT 10SM CLR 13/06 A3028 RMK AO2 T01300060
KSAR 160035Z AUTO 34008KT 310V010 10SM CLR 13/06 A3027 RMK AO2 T01320060
KSAR 160015Z AUTO 34008KT 10SM CLR 14/06 A3026 RMK AO2 T01350060
KSAR 152355Z AUTO 34007KT 10SM CLR 14/06 A3025 RMK AO2 T01360061 10171 20136
KSAR 152335Z AUTO 34006KT 10SM CLR 14/06 A3024 RMK AO2 T01420057
KSAR 152315Z AUTO 34010G16KT 10SM CLR 15/06 A3024 RMK AO2 T01480055
KSAR 152255Z AUTO 32010G17KT 10SM CLR 16/06 A3023 RMK AO2 T01550062
KSAR 152235Z AUTO 33008G14KT 10SM CLR 16/06 A3022 RMK AO2 T01590062
KSAR 152215Z AUTO 33011G16KT 10SM CLR 16/06 A3022 RMK AO2 T01600060
KSAR 152155Z AUTO 32011G14KT 10SM CLR 16/06 A3021 RMK AO2 T01630064
KSAR 152135Z AUTO 31010G17KT 10SM CLR 17/06 A3021 RMK AO2 T01650063
KSAR 152115Z AUTO 32010G17KT 10SM CLR 17/06 A3021 RMK AO2 T01660062
KSAR 152055Z AUTO 31008G15KT 10SM CLR 17/06 A3020 RMK AO2 T01670063
KSAR 152035Z AUTO 33008G17KT 290V350 10SM CLR 17/07 A3020 RMK AO2 T01700069
KSAR 152015Z AUTO 34010G16KT 300V010 10SM CLR 17/07 A3019 RMK AO2 T01700068
KSAR 151955Z AUTO 33009G18KT 10SM CLR 17/07 A3019 RMK AO2 T01690069
KSAR 151935Z AUTO 31012G19KT 10SM CLR 16/07 A3019 RMK AO2 T01640070
KSAR 151915Z AUTO 32007G18KT 10SM CLR 17/07 A3019 RMK AO2 T01660074
KSAR 151855Z AUTO 32012G22KT 10SM SCT034 16/07 A3020 RMK AO2 T01610073
KSAR 151835Z AUTO 31013G17KT 290V350 10SM SCT034 16/08 A3020 RMK AO2 T01600078
KSAR 151815Z AUTO 32013G17KT 10SM BKN032 16/08 A3020 RMK AO2 T01580081
KSAR 151755Z AUTO 31009G18KT 10SM BKN032 15/08 A3020 RMK AO2 60009 T01460081 10190 20121
KSAR 151735Z AUTO 33013G21KT 10SM SCT026 14/08 A3020 RMK AO2 T01400076
KSAR 151715Z AUTO 33013G20KT 10SM BKN026 13/07 A3020 RMK AO2 T01260073
KSAR 151655Z AUTO 32015G21KT 10SM OVC024 12/08 A3020 RMK AO2 T01230081
KSAR 151635Z AUTO 32013G20KT 10SM OVC019 12/09 A3020 RMK AO2 T01220088
KSAR 151615Z AUTO 31007KT 10SM BKN019 OVC025 13/10 A3019 RMK AO2 T01250099
KSAR 151555Z AUTO 31008G16KT 10SM OVC022 13/10 A3018 RMK AO2 T01250097
KSAR 151535Z AUTO 32011G16KT 290V350 10SM OVC020 13/10 A3016 RMK AO2 T01260104
KSAR 151515Z AUTO 30012G18KT 10SM BKN013 OVC018 12/11 A3014 RMK AO2 T01230107
KSAR 151455Z AUTO 30010G15KT 10SM OVC011 13/12 A3014 RMK AO2 P0003 60009 T01260117
KSAR 151435Z AUTO 29009KT 10SM OVC011 13/12 A3013 RMK AO2 P0003 T01270121
KSAR 151415Z AUTO 29008G17KT 7SM RA BKN011 OVC016 13/12 A3011 RMK AO2 P0002 T01290121
KSAR 151355Z AUTO 30012G17KT 10SM -RA OVC017 13/12 A3010 RMK AO2 P0004 T01320123